Time;durP1;ratioP1;P1;durP2;ratioP2;P2;SDS_P1;SDS_P2;PMS_P1;PMS_P2;Temp;Humidity;BMP_temperature;BMP_pressure;BME280_temperature;BME280_humidity;BME280_pressure;Samples;Min_cycle;Max_cycle;Signal;HPM_P1;HPM_P2
2023/06/23 00:01:31;;;;;;;11.10;5.18;;;;;;;18.02;100.00;100925.84;6250063;28;20056;-72
2023/06/23 00:04:33;;;;;;;6.65;4.40;;;;;;;18.04;100.00;100929.25;6250445;28;20049;-73
2023/06/23 00:07:34;;;;;;;6.93;4.53;;;;;;;18.08;100.00;100937.84;6250700;28;20052;-73
2023/06/23 00:10:36;;;;;;;7.63;4.70;;;;;;;18.08;100.00;100953.78;6260945;28;20327;-73
2023/06/23 00:13:37;;;;;;;9.13;5.68;;;;;;;17.99;100.00;100960.69;6275320;28;20041;-73
2023/06/23 00:16:40;;;;;;;7.78;4.70;;;;;;;18.00;100.00;100967.69;6275111;28;20675;-73
2023/06/23 00:19:42;;;;;;;6.70;4.40;;;;;;;18.00;100.00;100970.38;6274865;28;20045;-73
2023/06/23 00:22:44;;;;;;;6.35;4.72;;;;;;;18.06;100.00;100980.50;6274386;28;20327;-73
2023/06/23 00:25:45;;;;;;;7.95;4.65;;;;;;;18.04;100.00;100989.59;6274873;28;20048;-73
2023/06/23 00:28:47;;;;;;;7.35;4.93;;;;;;;17.99;100.00;100998.78;6262220;28;20465;-72
2023/06/23 00:31:50;;;;;;;7.60;5.05;;;;;;;18.00;100.00;100999.63;6249318;28;20049;-73
2023/06/23 00:34:51;;;;;;;7.88;4.78;;;;;;;18.00;100.00;101005.78;6271954;28;20052;-73
2023/06/23 00:37:53;;;;;;;8.45;5.03;;;;;;;18.05;100.00;101018.69;6274843;28;20045;-73
2023/06/23 00:40:54;;;;;;;7.05;4.70;;;;;;;18.03;100.00;101023.28;6268359;28;20064;-73
2023/06/23 00:43:59;;;;;;;6.80;4.18;;;;;;;17.93;100.00;101023.19;6250347;28;20053;-73
2023/06/23 00:47:03;;;;;;;6.90;3.63;;;;;;;17.83;100.00;101026.69;6255315;28;20049;-74
2023/06/23 00:50:06;;;;;;;6.20;3.78;;;;;;;17.69;100.00;101012.66;6255011;28;20041;-73
2023/06/23 00:53:07;;;;;;;8.85;4.30;;;;;;;17.67;100.00;101011.94;6254394;28;20060;-72
2023/06/23 00:56:09;;;;;;;5.43;4.15;;;;;;;17.73;100.00;101006.16;6254799;28;20405;-73
2023/06/23 00:59:10;;;;;;;5.60;3.67;;;;;;;17.69;100.00;101009.16;6279047;28;20373;-73
2023/06/23 01:02:13;;;;;;;7.35;3.72;;;;;;;17.67;100.00;100998.66;6273616;28;20048;-73
2023/06/23 01:05:14;;;;;;;5.40;3.50;;;;;;;17.76;100.00;101007.75;6246490;28;20465;-73
2023/06/23 01:08:27;;;;;;;4.85;3.28;;;;;;;17.80;100.00;101000.34;6254759;28;20365;-73
2023/06/23 01:11:32;;;;;;;5.68;3.70;;;;;;;17.73;100.00;101000.84;6253805;28;20045;-73
2023/06/23 01:14:38;;;;;;;5.32;3.85;;;;;;;17.65;100.00;100992.59;6257436;28;20052;-73
2023/06/23 01:17:47;;;;;;;7.88;4.07;;;;;;;17.60;100.00;101001.91;6279376;28;20052;-73
2023/06/23 01:20:49;;;;;;;8.90;3.33;;;;;;;17.63;100.00;101009.66;6278516;28;20045;-73
2023/06/23 01:24:05;;;;;;;6.65;4.55;;;;;;;17.63;100.00;101014.97;6278830;28;20049;-73
2023/06/23 01:27:34;;;;;;;6.45;3.95;;;;;;;17.60;100.00;101007.22;6279046;28;20061;-73
2023/06/23 01:30:41;;;;;;;6.60;3.90;;;;;;;17.67;100.00;101006.63;6278489;28;20052;-73
2023/06/23 01:33:48;;;;;;;7.00;4.00;;;;;;;17.65;100.00;101013.03;6265198;28;20349;-73
2023/06/23 01:36:57;;;;;;;8.55;4.75;;;;;;;17.63;100.00;101010.50;6275697;28;20057;-73
2023/06/23 01:40:13;;;;;;;9.40;3.97;;;;;;;17.58;100.00;101019.81;6278672;28;20041;-73
2023/06/23 01:43:15;;;;;;;6.85;4.13;;;;;;;17.57;100.00;101020.75;6278216;28;20057;-73
2023/06/23 01:46:25;;;;;;;9.48;4.35;;;;;;;17.54;100.00;101029.81;6278382;28;20361;-73
2023/06/23 01:49:31;;;;;;;8.50;4.32;;;;;;;17.51;100.00;101032.69;6278592;28;20052;-73
2023/06/23 01:52:34;;;;;;;6.82;4.00;;;;;;;17.52;100.00;101038.88;6277710;28;20053;-73
2023/06/23 01:55:39;;;;;;;6.18;3.95;;;;;;;17.56;100.00;101040.31;6277702;28;20069;-73
2023/06/23 01:58:40;;;;;;;7.60;3.65;;;;;;;17.57;100.00;101044.66;6278081;28;20362;-73
2023/06/23 02:01:46;;;;;;;5.57;3.90;;;;;;;17.58;100.00;101052.53;6277278;28;20353;-73
2023/06/23 02:04:49;;;;;;;4.55;3.30;;;;;;;17.55;100.00;101046.59;6272815;28;20041;-73
2023/06/23 02:07:53;;;;;;;8.02;4.68;;;;;;;17.52;100.00;101053.00;6277529;28;20045;-73
2023/06/23 02:10:56;;;;;;;5.50;3.53;;;;;;;17.54;100.00;101061.72;6277310;28;20048;-73
2023/06/23 02:13:59;;;;;;;10.02;4.88;;;;;;;17.52;100.00;101052.16;6277722;28;20130;-73
2023/06/23 02:17:03;;;;;;;5.47;3.45;;;;;;;17.52;100.00;101053.00;6277836;28;20056;-73
2023/06/23 02:20:16;;;;;;;7.25;4.45;;;;;;;17.59;100.00;101046.25;6277560;28;20041;-73
2023/06/23 02:23:19;;;;;;;9.15;5.03;;;;;;;17.55;100.00;101051.91;6277701;28;20380;-73
2023/06/23 02:26:22;;;;;;;10.73;5.25;;;;;;;17.51;100.00;101051.31;6277428;28;20098;-73
2023/06/23 02:29:25;;;;;;;10.10;6.03;;;;;;;17.49;100.00;101059.41;6277618;28;20053;-73
2023/06/23 02:32:27;;;;;;;8.13;4.93;;;;;;;17.56;100.00;101061.56;6276682;28;20055;-73
2023/06/23 02:35:30;;;;;;;12.30;4.80;;;;;;;17.55;100.00;101065.22;6268163;28;20048;-73
2023/06/23 02:38:36;;;;;;;9.20;4.47;;;;;;;17.52;100.00;101060.13;6277285;28;20049;-73
2023/06/23 02:41:41;;;;;;;7.60;4.38;;;;;;;17.50;100.00;101071.72;6276423;28;20449;-73
2023/06/23 02:44:49;;;;;;;7.38;3.80;;;;;;;17.38;100.00;101077.13;6264736;28;20052;-73
2023/06/23 02:47:56;;;;;;;9.43;3.80;;;;;;;17.33;100.00;101076.63;6253908;28;20056;-72
2023/06/23 02:50:59;;;;;;;6.43;3.55;;;;;;;17.24;100.00;101084.34;6276285;28;20076;-72
2023/06/23 02:54:05;;;;;;;5.32;2.50;;;;;;;17.23;100.00;101087.97;6276947;28;20049;-72
2023/06/23 02:57:11;;;;;;;3.72;2.45;;;;;;;17.18;100.00;101083.97;6260264;28;20096;-72
2023/06/23 03:00:19;;;;;;;3.60;2.40;;;;;;;17.24;100.00;101078.19;6252133;28;20045;-72
2023/06/23 03:03:21;;;;;;;3.58;2.17;;;;;;;17.24;100.00;101079.03;6251493;28;20076;-72
2023/06/23 03:06:24;;;;;;;5.15;1.95;;;;;;;17.19;100.00;101089.16;6251768;28;20376;-73
2023/06/23 03:09:26;;;;;;;2.47;1.80;;;;;;;17.26;100.00;101089.56;6250776;28;20045;-73
2023/06/23 03:12:27;;;;;;;2.88;1.33;;;;;;;17.24;100.00;101102.09;6251045;28;20061;-73
2023/06/23 03:15:30;;;;;;;4.20;1.98;;;;;;;16.98;100.00;101098.72;6251551;28;20141;-73
2023/06/23 03:18:35;;;;;;;3.17;1.95;;;;;;;16.78;100.00;101096.72;6251724;28;20045;-73
2023/06/23 03:21:39;;;;;;;2.95;1.80;;;;;;;16.68;100.00;101109.78;6262153;28;20045;-74
2023/06/23 03:24:51;;;;;;;2.35;1.60;;;;;;;16.66;100.00;101114.34;6276317;28;20055;-73
2023/06/23 03:27:56;;;;;;;2.15;1.60;;;;;;;16.55;100.00;101120.44;6275983;28;20471;-73
2023/06/23 03:31:01;;;;;;;3.15;2.10;;;;;;;16.62;100.00;101124.34;6275856;28;20056;-73
2023/06/23 03:34:04;;;;;;;4.22;2.05;;;;;;;16.63;100.00;101127.84;6266077;28;20052;-74
2023/06/23 03:37:08;;;;;;;3.13;2.10;;;;;;;16.62;100.00;101150.03;6276090;28;20049;-74
2023/06/23 03:40:14;;;;;;;2.55;1.83;;;;;;;16.52;100.00;101146.34;6275826;28;20045;-73
2023/06/23 03:43:19;;;;;;;3.38;2.20;;;;;;;16.51;100.00;101155.25;6275426;28;20060;-73
2023/06/23 03:46:24;;;;;;;3.53;2.13;;;;;;;16.51;100.00;101150.81;6275261;28;20053;-73
2023/06/23 03:49:31;;;;;;;7.18;2.72;;;;;;;16.51;100.00;101160.56;6271765;28;20056;-73
2023/06/23 03:52:34;;;;;;;4.70;2.58;;;;;;;16.48;100.00;101161.63;6270967;28;20372;-73
2023/06/23 03:55:39;;;;;;;4.53;2.78;;;;;;;16.51;100.00;101180.00;6271325;28;20045;-72
2023/06/23 03:58:42;;;;;;;3.88;2.60;;;;;;;16.55;100.00;101176.16;6271721;28;20438;-73
2023/06/23 04:01:45;;;;;;;3.08;2.15;;;;;;;16.54;100.00;101184.25;6270348;28;20037;-72
2023/06/23 04:04:53;;;;;;;6.32;2.88;;;;;;;16.50;100.00;101196.88;6268603;28;20358;-72
2023/06/23 04:07:57;;;;;;;3.65;2.40;;;;;;;16.40;100.00;101188.72;6271235;28;20041;-72
2023/06/23 04:11:00;;;;;;;2.75;2.00;;;;;;;16.42;100.00;101200.06;6270994;28;20049;-73
2023/06/23 04:14:02;;;;;;;3.90;2.42;;;;;;;16.37;100.00;101210.16;6271354;28;20048;-73
2023/06/23 04:17:07;;;;;;;4.65;2.92;;;;;;;16.36;100.00;101216.41;6270860;28;20049;-72
2023/06/23 04:20:13;;;;;;;3.05;2.13;;;;;;;16.36;100.00;101210.25;6271066;28;20465;-73
2023/06/23 04:23:16;;;;;;;4.15;2.40;;;;;;;16.26;100.00;101217.16;6270555;28;20048;-72
2023/06/23 04:26:17;;;;;;;3.10;2.30;;;;;;;16.26;100.00;101215.38;6271208;28;20049;-73
2023/06/23 04:29:20;;;;;;;6.18;2.75;;;;;;;16.24;100.00;101209.31;6271746;28;20056;-72
2023/06/23 04:32:24;;;;;;;3.70;2.47;;;;;;;16.24;100.00;101218.09;6267175;28;20093;-72
2023/06/23 04:35:27;;;;;;;4.38;2.70;;;;;;;16.20;100.00;101221.94;6271415;28;20082;-73
2023/06/23 04:38:33;;;;;;;2.78;2.15;;;;;;;16.24;100.00;101241.13;6270905;28;20048;-72
2023/06/23 04:41:38;;;;;;;4.22;2.30;;;;;;;16.30;100.00;101240.69;6273022;28;20361;-72
2023/06/23 04:44:48;;;;;;;4.00;2.60;;;;;;;16.30;100.00;101258.41;6274991;28;20052;-72
2023/06/23 04:47:55;;;;;;;4.22;2.83;;;;;;;16.31;100.00;101255.69;6274736;28;20049;-73
2023/06/23 04:51:00;;;;;;;3.90;2.25;;;;;;;16.30;100.00;101261.91;6274286;28;20048;-72
2023/06/23 04:54:08;;;;;;;4.50;2.75;;;;;;;16.33;100.00;101264.38;6274540;28;20052;-73
2023/06/23 04:57:13;;;;;;;4.75;3.38;;;;;;;16.35;100.00;101269.56;6274796;28;20072;-72
2023/06/23 05:00:19;;;;;;;6.97;3.80;;;;;;;16.45;100.00;101267.97;6257325;28;20049;-72
2023/06/23 05:03:22;;;;;;;10.43;4.00;;;;;;;16.46;100.00;101270.53;6258882;28;20075;-72
2023/06/23 05:06:26;;;;;;;11.05;5.03;;;;;;;16.49;100.00;101278.28;6274469;28;20060;-72
2023/06/23 05:09:29;;;;;;;6.45;4.30;;;;;;;16.47;100.00;101277.50;6274540;28;20045;-72
2023/06/23 05:12:32;;;;;;;6.65;3.70;;;;;;;16.59;100.00;101299.69;6273754;28;20053;-72
2023/06/23 05:15:33;;;;;;;7.00;4.35;;;;;;;16.62;100.00;101295.97;6274555;28;20354;-72
2023/06/23 05:18:36;;;;;;;9.98;4.95;;;;;;;16.68;100.00;101290.25;6274421;28;20060;-72
2023/06/23 05:21:39;;;;;;;9.38;4.95;;;;;;;16.70;100.00;101305.09;6273797;28;20068;-72
2023/06/23 05:24:45;;;;;;;10.10;5.47;;;;;;;16.61;100.00;101302.25;6274306;28;20040;-72
2023/06/23 05:27:49;;;;;;;11.82;5.95;;;;;;;16.59;100.00;101312.13;6274493;28;20052;-72
2023/06/23 05:30:53;;;;;;;9.68;5.22;;;;;;;16.52;100.00;101324.09;6273952;28;20041;-72
2023/06/23 05:33:57;;;;;;;10.23;5.25;;;;;;;16.59;100.00;101328.06;6271709;28;20361;-72
2023/06/23 05:37:02;;;;;;;10.65;4.90;;;;;;;16.54;100.00;101336.34;6278704;28;20049;-72
2023/06/23 05:40:05;;;;;;;7.30;4.68;;;;;;;16.54;100.00;101354.91;6278848;28;20057;-72
2023/06/23 05:43:07;;;;;;;8.13;4.30;;;;;;;16.52;100.00;101371.88;6277642;28;20056;-72
2023/06/23 05:46:13;;;;;;;7.47;4.85;;;;;;;16.53;100.00;101365.59;6270970;28;20045;-74
2023/06/23 05:49:18;;;;;;;7.38;4.78;;;;;;;16.49;100.00;101378.25;6245607;28;20450;-73
2023/06/23 05:52:23;;;;;;;7.45;4.80;;;;;;;16.47;100.00;101381.00;6252964;28;20053;-74
2023/06/23 05:55:27;;;;;;;9.73;5.30;;;;;;;16.55;100.00;101398.22;6253535;28;20469;-72
2023/06/23 05:58:34;;;;;;;7.05;4.50;;;;;;;16.53;100.00;101392.97;6253423;28;20056;-72
2023/06/23 06:01:41;;;;;;;9.40;4.72;;;;;;;16.54;100.00;101394.72;6252602;28;20053;-72
2023/06/23 06:04:48;;;;;;;7.38;4.68;;;;;;;16.53;100.00;101405.41;6252865;28;20055;-73
2023/06/23 06:07:52;;;;;;;10.77;4.82;;;;;;;16.48;100.00;101408.38;6278180;28;20045;-72
2023/06/23 06:10:55;;;;;;;9.18;4.22;;;;;;;16.47;100.00;101414.63;6277304;28;20045;-72
2023/06/23 06:13:59;;;;;;;10.98;4.43;;;;;;;16.40;100.00;101418.66;6277955;28;20052;-72
2023/06/23 06:17:01;;;;;;;8.30;4.90;;;;;;;16.39;100.00;101425.75;6277812;28;20060;-72
2023/06/23 06:20:06;;;;;;;7.55;4.72;;;;;;;16.43;100.00;101429.06;6277700;28;20345;-72
2023/06/23 06:23:10;;;;;;;9.35;4.78;;;;;;;16.49;100.00;101441.94;6276862;28;20048;-72
2023/06/23 06:26:13;;;;;;;5.88;3.83;;;;;;;16.46;100.00;101448.28;6277670;28;20056;-72
2023/06/23 06:29:18;;;;;;;13.38;4.53;;;;;;;16.46;100.00;101453.59;6244681;28;20051;-72
2023/06/23 06:32:21;;;;;;;15.43;4.35;;;;;;;16.43;100.00;101460.91;6251977;28;20042;-72
2023/06/23 06:35:23;;;;;;;8.63;4.63;;;;;;;16.40;100.00;101469.06;6252648;28;20057;-72
2023/06/23 06:38:29;;;;;;;8.95;4.50;;;;;;;16.40;100.00;101482.34;6252537;28;20053;-72
2023/06/23 06:41:31;;;;;;;12.18;4.85;;;;;;;16.39;100.00;101494.72;6251747;28;20049;-72
2023/06/23 06:44:32;;;;;;;6.35;4.32;;;;;;;16.34;100.00;101499.50;6252117;28;20049;-72
2023/06/23 06:47:40;;;;;;;7.72;4.07;;;;;;;16.42;100.00;101507.81;6263243;28;20437;-72
2023/06/23 06:50:42;;;;;;;7.70;3.92;;;;;;;16.44;100.00;101511.22;6276298;28;20115;-72
2023/06/23 06:53:45;;;;;;;7.13;4.07;;;;;;;16.43;100.00;101516.59;6276993;28;20041;-72
2023/06/23 06:56:47;;;;;;;8.02;4.45;;;;;;;16.40;100.00;101524.78;6276829;28;20050;-72
2023/06/23 06:59:48;;;;;;;8.05;4.25;;;;;;;16.40;100.00;101535.41;6276939;28;20048;-72
2023/06/23 07:02:50;;;;;;;5.20;3.22;;;;;;;16.38;100.00;101535.47;6261961;28;20037;-72
2023/06/23 07:05:52;;;;;;;8.40;3.75;;;;;;;16.49;100.00;101548.91;6251996;28;20049;-72
2023/06/23 07:08:54;;;;;;;7.32;3.90;;;;;;;16.55;100.00;101558.25;6251376;28;20312;-72
2023/06/23 07:11:58;;;;;;;7.85;3.80;;;;;;;16.55;100.00;101560.06;6251277;28;20048;-72
2023/06/23 07:15:00;;;;;;;9.50;3.88;;;;;;;16.60;100.00;101564.13;6251933;28;20049;-72
2023/06/23 07:18:01;;;;;;;7.07;3.72;;;;;;;16.58;100.00;101568.69;6251815;28;20061;-72
2023/06/23 07:21:04;;;;;;;8.18;3.80;;;;;;;16.54;100.00;101569.00;6250807;28;20359;-72
2023/06/23 07:24:07;;;;;;;6.28;3.40;;;;;;;16.44;100.00;101582.84;6258315;28;20059;-72
2023/06/23 07:27:09;;;;;;;6.45;3.17;;;;;;;16.51;100.00;101585.94;6276159;28;20053;-72
2023/06/23 07:30:11;;;;;;;7.43;5.05;;;;;;;16.46;100.00;101590.72;6276054;28;20186;-72
2023/06/23 07:33:12;;;;;;;10.65;3.78;;;;;;;16.63;100.00;101593.13;6255963;28;20053;-72
2023/06/23 07:36:13;;;;;;;8.13;4.25;;;;;;;16.58;100.00;101599.66;6251180;28;20056;-72
2023/06/23 07:39:16;;;;;;;7.13;4.03;;;;;;;16.63;100.00;101601.09;6243169;28;20057;-72
2023/06/23 07:42:17;;;;;;;6.90;4.22;;;;;;;16.71;100.00;101611.19;6275036;28;20456;-72
2023/06/23 07:45:19;;;;;;;7.13;3.92;;;;;;;16.69;100.00;101613.94;6275582;28;20056;-72
2023/06/23 07:48:20;;;;;;;8.65;4.32;;;;;;;16.71;100.00;101617.38;6275705;28;20055;-72
2023/06/23 07:51:21;;;;;;;9.23;3.85;;;;;;;16.70;100.00;101623.59;6275236;28;20056;-73
2023/06/23 07:54:24;;;;;;;7.60;4.63;;;;;;;16.76;100.00;101619.75;6275003;28;20059;-72
2023/06/23 07:57:25;;;;;;;7.07;4.20;;;;;;;16.69;100.00;101627.22;6275449;28;20068;-72
2023/06/23 08:00:27;;;;;;;7.60;4.53;;;;;;;16.68;100.00;101630.81;6274901;28;20127;-72
2023/06/23 08:03:29;;;;;;;8.95;4.38;;;;;;;16.78;100.00;101641.72;6271050;28;20394;-73
2023/06/23 08:06:30;;;;;;;10.25;4.75;;;;;;;16.83;100.00;101652.91;6275479;28;20048;-73
2023/06/23 08:09:33;;;;;;;9.15;4.93;;;;;;;16.82;100.00;101645.03;6275275;28;20449;-73
2023/06/23 08:12:35;;;;;;;9.93;4.20;;;;;;;16.80;100.00;101655.75;6274776;28;20056;-73
2023/06/23 08:15:37;;;;;;;7.35;4.53;;;;;;;16.80;100.00;101661.06;6275155;28;20041;-73
2023/06/23 08:18:38;;;;;;;6.07;4.07;;;;;;;16.87;100.00;101665.03;6275362;28;20045;-73
2023/06/23 08:21:39;;;;;;;8.95;4.55;;;;;;;16.84;100.00;101674.97;6274359;28;20078;-73
2023/06/23 08:24:42;;;;;;;8.40;4.38;;;;;;;16.79;100.00;101677.09;6275196;28;20052;-74
2023/06/23 08:27:43;;;;;;;6.57;3.55;;;;;;;16.86;100.00;101686.38;6275140;28;20049;-73
2023/06/23 08:30:45;;;;;;;7.40;4.53;;;;;;;16.93;100.00;101695.63;6270050;28;20049;-74
2023/06/23 08:33:46;;;;;;;8.43;4.20;;;;;;;16.97;100.00;101697.13;6250175;28;20041;-73
2023/06/23 08:36:47;;;;;;;7.40;4.20;;;;;;;16.94;100.00;101708.81;6250169;28;20133;-73
2023/06/23 08:39:50;;;;;;;8.25;4.28;;;;;;;16.87;100.00;101702.19;6250337;28;20045;-73
2023/06/23 08:42:51;;;;;;;10.18;4.70;;;;;;;16.92;100.00;101704.56;6249282;28;20319;-74
2023/06/23 08:45:55;;;;;;;11.10;5.03;;;;;;;16.97;100.00;101710.41;6250255;28;20058;-72
2023/06/23 08:49:02;;;;;;;10.43;6.05;;;;;;;17.03;100.00;101714.47;6249979;28;20753;-73
2023/06/23 08:52:04;;;;;;;10.25;5.82;;;;;;;17.10;100.00;101718.44;6249587;28;20061;-73
2023/06/23 08:55:09;;;;;;;11.55;6.18;;;;;;;16.94;100.00;101721.22;6273361;28;20080;-73
2023/06/23 08:58:10;;;;;;;11.77;6.20;;;;;;;16.93;100.00;101732.81;6274681;28;20335;-73
2023/06/23 09:01:12;;;;;;;10.38;5.63;;;;;;;16.97;100.00;101736.97;6268425;28;20068;-73
2023/06/23 09:04:14;;;;;;;13.52;6.20;;;;;;;17.04;100.00;101734.78;6274519;28;20041;-73
2023/06/23 09:07:16;;;;;;;13.02;6.18;;;;;;;17.01;100.00;101737.63;6277314;28;20045;-73
2023/06/23 09:10:19;;;;;;;10.80;6.40;;;;;;;17.02;100.00;101742.84;6278443;28;20568;-73
2023/06/23 09:13:23;;;;;;;13.98;6.20;;;;;;;17.12;100.00;101754.59;6254630;28;20049;-73
2023/06/23 09:16:25;;;;;;;10.27;5.43;;;;;;;17.10;100.00;101761.78;6254429;28;20053;-73
2023/06/23 09:19:27;;;;;;;13.38;5.88;;;;;;;17.11;100.00;101757.31;6254569;28;20056;-73
2023/06/23 09:22:29;;;;;;;14.75;6.78;;;;;;;17.13;100.00;101768.72;6263672;28;20052;-73
2023/06/23 09:25:43;;;;;;;10.70;5.75;;;;;;;17.24;100.00;101764.41;6279108;28;20060;-73
2023/06/23 09:28:44;;;;;;;9.73;6.15;;;;;;;17.29;100.00;101765.91;6278979;28;20045;-73
2023/06/23 09:31:47;;;;;;;10.68;6.30;;;;;;;17.34;100.00;101769.09;6271815;28;20048;-73
2023/06/23 09:34:55;;;;;;;12.27;6.68;;;;;;;17.35;100.00;101773.47;6278758;28;20052;-73
2023/06/23 09:37:57;;;;;;;14.10;7.40;;;;;;;17.41;100.00;101775.75;6278874;28;20365;-73
2023/06/23 09:41:08;;;;;;;13.02;7.55;;;;;;;17.52;100.00;101783.84;6272205;28;20053;-72
2023/06/23 09:44:14;;;;;;;15.65;6.95;;;;;;;17.52;100.00;101783.00;6253828;28;20056;-73
2023/06/23 09:47:17;;;;;;;13.80;6.78;;;;;;;17.61;100.00;101785.03;6253522;28;20054;-72
2023/06/23 09:50:22;;;;;;;14.05;7.43;;;;;;;17.65;100.00;101792.72;6253228;28;20050;-73
2023/06/23 09:53:23;;;;;;;17.52;7.20;;;;;;;17.72;100.00;101796.69;6253578;28;20041;-72
2023/06/23 09:56:26;;;;;;;12.63;6.80;;;;;;;17.69;100.00;101796.03;6253769;28;20469;-73
2023/06/23 09:59:28;;;;;;;18.40;7.15;;;;;;;17.75;100.00;101801.81;6255148;28;20389;-72
2023/06/23 10:02:30;;;;;;;13.88;7.03;;;;;;;17.76;100.00;101802.69;6270480;28;20135;-73
2023/06/23 10:05:35;;;;;;;15.32;7.40;;;;;;;17.74;100.00;101802.78;6277996;28;20345;-73
2023/06/23 10:08:39;;;;;;;16.00;6.30;;;;;;;17.76;100.00;101805.34;6277956;28;20040;-73
2023/06/23 10:11:42;;;;;;;13.75;7.00;;;;;;;17.75;100.00;101811.59;6277446;28;20052;-73
2023/06/23 10:14:44;;;;;;;20.85;7.43;;;;;;;17.77;100.00;101812.38;6277748;28;20055;-74
2023/06/23 10:17:46;;;;;;;12.68;6.68;;;;;;;17.77;100.00;101819.50;6277375;28;20045;-73
2023/06/23 10:20:48;;;;;;;14.48;7.47;;;;;;;17.89;100.00;101821.31;6277043;28;20045;-73
2023/06/23 10:23:49;;;;;;;9.60;6.13;;;;;;;17.79;100.00;101823.72;6277721;28;20044;-73
2023/06/23 10:26:55;;;;;;;10.93;6.20;;;;;;;17.77;100.00;101830.13;6277610;28;20119;-73
2023/06/23 10:29:58;;;;;;;10.55;5.97;;;;;;;17.75;100.00;101822.22;6277802;28;20056;-73
2023/06/23 10:33:02;;;;;;;14.38;7.25;;;;;;;17.80;100.00;101829.91;6269460;28;20094;-73
2023/06/23 10:36:07;;;;;;;10.65;6.53;;;;;;;17.77;100.00;101836.28;6277517;28;20060;-73
2023/06/23 10:39:11;;;;;;;14.40;6.90;;;;;;;17.78;100.00;101840.66;6277452;28;20045;-73
2023/06/23 10:42:16;;;;;;;11.05;6.10;;;;;;;17.79;100.00;101833.53;6276495;28;20450;-73
2023/06/23 10:45:18;;;;;;;12.77;6.68;;;;;;;17.84;100.00;101844.69;6277028;28;20053;-73
2023/06/23 10:48:19;;;;;;;16.67;5.75;;;;;;;17.79;100.00;101844.16;6277025;28;20048;-73
2023/06/23 10:51:21;;;;;;;11.27;5.82;;;;;;;17.78;100.00;101859.25;6276375;28;20362;-73
2023/06/23 10:54:30;;;;;;;10.02;6.03;;;;;;;17.71;100.00;101857.91;6276846;28;20045;-73
2023/06/23 10:57:33;;;;;;;10.63;6.15;;;;;;;17.72;100.00;101857.00;6276862;28;20401;-73
2023/06/23 11:00:35;;;;;;;12.18;6.65;;;;;;;17.66;100.00;101860.88;6273830;28;20052;-79
2023/06/23 11:03:38;;;;;;;11.30;6.70;;;;;;;17.81;100.00;101867.06;6271316;28;20053;-78
2023/06/23 11:06:39;;;;;;;12.23;6.20;;;;;;;18.05;100.00;101863.72;6276577;28;20322;-78
2023/06/23 11:09:45;;;;;;;9.02;5.72;;;;;;;18.16;100.00;101869.16;6276850;28;20051;-79
2023/06/23 11:12:50;;;;;;;11.65;6.50;;;;;;;18.11;100.00;101871.25;6263553;28;20049;-78
2023/06/23 11:15:54;;;;;;;11.85;6.72;;;;;;;18.14;100.00;101873.72;6259988;28;20362;-78
2023/06/23 11:18:57;;;;;;;11.45;7.10;;;;;;;18.03;100.00;101877.09;6256957;28;20354;-78
2023/06/23 11:22:09;;;;;;;12.50;7.55;;;;;;;17.97;100.00;101870.38;6275874;28;20045;-79
2023/06/23 11:25:23;;;;;;;14.32;7.50;;;;;;;18.22;100.00;101880.25;6260516;28;20442;-79
2023/06/23 11:28:34;;;;;;;14.55;7.13;;;;;;;18.11;100.00;101882.75;6244178;28;20060;-78
2023/06/23 11:31:35;;;;;;;18.75;7.55;;;;;;;18.24;100.00;101880.97;6250413;28;20108;-79
2023/06/23 11:34:54;;;;;;;13.00;7.47;;;;;;;18.15;100.00;101873.63;6251326;28;20049;-79
2023/06/23 11:37:56;;;;;;;19.45;7.03;;;;;;;18.31;100.00;101877.94;6251246;28;20065;-79
2023/06/23 11:40:59;;;;;;;12.07;6.47;;;;;;;18.23;100.00;101875.78;6250683;28;20049;-78
2023/06/23 11:44:03;;;;;;;11.45;6.68;;;;;;;18.44;100.00;101873.44;6273332;28;20055;-79
2023/06/23 11:47:04;;;;;;;12.38;6.47;;;;;;;18.36;100.00;101883.78;6275850;28;20052;-79
2023/06/23 11:50:08;;;;;;;16.70;8.45;;;;;;;18.35;100.00;101884.72;6275686;28;20053;-79
2023/06/23 11:53:10;;;;;;;11.15;6.32;;;;;;;18.35;100.00;101882.94;6274448;28;20052;-79
2023/06/23 11:56:15;;;;;;;12.45;6.50;;;;;;;18.36;100.00;101886.44;6275611;28;20049;-78
2023/06/23 11:59:19;;;;;;;10.93;6.45;;;;;;;18.27;100.00;101890.59;6242957;28;20049;-79
2023/06/23 12:02:20;;;;;;;10.38;6.13;;;;;;;18.23;100.00;101905.91;6258575;28;20456;-78
2023/06/23 12:05:21;;;;;;;10.20;5.80;;;;;;;18.21;100.00;101891.84;6275323;28;20175;-79
2023/06/23 12:08:26;;;;;;;12.07;6.30;;;;;;;18.35;100.00;101882.06;6275168;28;20060;-79
2023/06/23 12:11:28;;;;;;;10.07;6.18;;;;;;;18.28;100.00;101888.78;6264849;28;20045;-79
2023/06/23 12:14:33;;;;;;;10.70;5.63;;;;;;;18.21;100.00;101889.19;6250488;28;20350;-79
2023/06/23 12:17:41;;;;;;;12.80;5.50;;;;;;;18.23;100.00;101895.25;6250429;28;20350;-78
2023/06/23 12:20:44;;;;;;;13.70;6.03;;;;;;;18.24;100.00;101898.75;6270144;28;20057;-79
2023/06/23 12:23:46;;;;;;;9.50;5.30;;;;;;;18.29;100.00;101891.31;6274876;28;20389;-79
2023/06/23 12:26:47;;;;;;;7.50;5.25;;;;;;;18.33;100.00;101889.31;6275234;28;20047;-78
2023/06/23 12:29:50;;;;;;;7.60;5.15;;;;;;;18.62;100.00;101893.50;6275028;28;20045;-79
2023/06/23 12:32:55;;;;;;;10.40;6.05;;;;;;;18.53;100.00;101891.47;6250946;28;20049;-78
2023/06/23 12:36:01;;;;;;;11.85;6.55;;;;;;;18.68;100.00;101892.22;6250230;28;20049;-78
2023/06/23 12:39:04;;;;;;;10.23;5.72;;;;;;;18.65;100.00;101890.59;6250351;28;20053;-78
2023/06/23 12:42:07;;;;;;;9.63;6.15;;;;;;;18.85;100.00;101897.28;6253750;28;20454;-79
2023/06/23 12:45:10;;;;;;;11.70;6.57;;;;;;;18.97;100.00;101891.06;6255113;28;20049;-79
2023/06/23 12:48:12;;;;;;;15.60;7.25;;;;;;;19.04;100.00;101890.66;6255167;28;20049;-79
2023/06/23 12:51:13;;;;;;;11.55;6.72;;;;;;;19.01;100.00;101891.69;6254721;28;20049;-78
2023/06/23 12:54:15;;;;;;;12.45;7.15;;;;;;;18.97;100.00;101896.38;6279669;28;20052;-79
2023/06/23 12:57:16;;;;;;;15.32;7.45;;;;;;;18.96;100.00;101893.84;6279698;28;20068;-79
2023/06/23 13:00:21;;;;;;;12.50;7.32;;;;;;;19.13;100.00;101892.66;6275941;28;20128;-79
2023/06/23 13:03:22;;;;;;;10.35;6.30;;;;;;;19.10;100.00;101895.53;6279344;28;20466;-79
2023/06/23 13:06:24;;;;;;;14.13;7.47;;;;;;;19.04;100.00;101891.50;6279690;28;20054;-79
2023/06/23 13:09:25;;;;;;;13.52;6.45;;;;;;;19.05;100.00;101889.69;6279412;28;20048;-79
2023/06/23 13:12:26;;;;;;;11.65;6.10;;;;;;;19.11;100.00;101895.41;6261044;28;20045;-79
2023/06/23 13:15:31;;;;;;;12.45;7.22;;;;;;;19.23;100.00;101891.03;6254405;28;20053;-79
2023/06/23 13:18:33;;;;;;;14.80;7.88;;;;;;;19.39;100.00;101896.94;6254684;28;20045;-79
2023/06/23 13:21:34;;;;;;;11.02;6.47;;;;;;;19.45;100.00;101901.84;6256329;28;20056;-78
2023/06/23 13:24:37;;;;;;;17.60;6.97;;;;;;;19.53;100.00;101893.31;6279145;28;20532;-79
2023/06/23 13:27:38;;;;;;;13.95;7.63;;;;;;;19.55;100.00;101890.53;6279119;28;20041;-79
2023/06/23 13:30:41;;;;;;;14.52;7.22;;;;;;;19.83;100.00;101900.03;6270865;28;20052;-79
2023/06/23 13:33:44;;;;;;;14.85;7.18;;;;;;;20.15;100.00;101894.97;6254194;28;20049;-80
2023/06/23 13:36:45;;;;;;;9.25;6.45;;;;;;;19.99;100.00;101896.13;6253942;28;20061;-79
2023/06/23 13:39:47;;;;;;;12.13;6.78;;;;;;;19.95;100.00;101893.81;6254157;28;20045;-80
2023/06/23 13:42:48;;;;;;;9.98;6.25;;;;;;;20.19;100.00;101894.63;6253063;28;20053;-79
2023/06/23 13:45:51;;;;;;;10.57;5.45;;;;;;;20.21;100.00;101903.38;6254045;28;20052;-79
2023/06/23 13:48:52;;;;;;;8.10;5.47;;;;;;;20.30;100.00;101900.94;6253766;28;20045;-79
2023/06/23 13:51:53;;;;;;;9.93;5.65;;;;;;;20.41;100.00;101896.50;6252330;28;20052;-79
2023/06/23 13:54:54;;;;;;;12.68;6.43;;;;;;;20.34;100.00;101894.41;6253638;28;20048;-80
2023/06/23 13:57:56;;;;;;;9.20;5.82;;;;;;;20.51;100.00;101894.84;6253827;28;20049;-79
2023/06/23 14:00:59;;;;;;;8.63;5.07;;;;;;;20.41;100.00;101896.50;6252663;28;20053;-79